Rand, CO (80473)

7:18 AM MST on February 07, 2016 (GMT -0700)
Walden-Jackson Cnty AP, Walde | | Change Station
CLOSE
Current Station
Airport
Location: Walden-Jackson Cnty AP, Walde,
Elevation: 8153 ft
Nearby Weather Stations

Elev 8153 ft 40.75 °N, 106.28 °W | Updated 3 minutes ago

Clear
Clear
21 °F
Feels Like 8 °F
N
15
Wind Variable Wind from WSW
Gusts 21 mph

Today
High -- | Low -- °F
--% Chance of Precip.
Yesterday
High -- | Low -- °F
Precip. -- in
Pressure 30.29 in
Visibility 10.0 miles
Clouds Clear
Windchill 8 °F
Dew Point 12 °F
Humidity 68%
Rainfall 0.00 in
Snow Depth Not available.
7:08 AM 5:29 PM
Waning Crescent, 1% visible
METAR K33V 071415Z AUTO 24013G18KT 10SM CLR M06/M11 A3029 RMK AO2
Pressure 30.29 in
Visibility 10.0 miles
Clouds Clear
Windchill 8 °F
Dew Point 12 °F
Humidity 68%
Rainfall 0.00 in
Snow Depth Not available.
7:08 AM 5:29 PM
Waning Crescent, 1% visible
METAR K33V 071415Z AUTO 24013G18KT 10SM CLR M06/M11 A3029 RMK AO2

10-Day Weather Forecast

Almanac

Astronomy

Feb. 07, 2016 Rise Set
Actual Time
Civil Twilight
Nautical Twilight
Astronomical Twilight
Moon
Length of Visible Light
Length of Day
Tomorrow will be .
, % of the Moon is Illuminated

Today's Extremes

State Highs State Lows

Community

WunderPhotos

Upload Photos

1,891,204 photos uploaded!

WunderBlog® & News

Nearby

Air Quality

  Air Quality AQ Index Pollutant
Not available.

Snow Depth

Station Depth Elevation

Earthquake Activity

City Distance Mag. Time & Date
Minimum magnitude displayed is 2.5.

Coastal Water Temperatures

Place Temperature

Stations

Nearby Weather Stations

Station Location Temp. Windchill Dew Point Humidity Wind Precip. Elev Updated Type
                   

Watches & Warnings

There are currently no watches in effect.